Time;durP1;ratioP1;P1;durP2;ratioP2;P2;SDS_P1;SDS_P2;PMS_P1;PMS_P2;Temp;Humidity;BMP_temperature;BMP_pressure;BME280_temperature;BME280_humidity;BME280_pressure;Samples;Min_cycle;Max_cycle;Signal;HPM_P1;HPM_P2
2022/06/22 00:00:37;;;;;;;5.00;1.52;;;21.70;99.90;;;;;;1023451;29;20098;-72
2022/06/22 00:01:38;;;;;;;2.30;1.50;;;21.70;99.90;;;;;;1025914;28;20775;-72
2022/06/22 00:02:17;;;;;;;2.00;1.63;;;21.60;99.90;;;;;;1027331;28;20391;-72
2022/06/22 00:02:51;;;;;;;4.15;2.00;;;21.60;99.90;;;;;;1026521;28;20019;-73
2022/06/22 00:03:21;;;;;;;2.17;1.40;;;21.50;99.90;;;;;;1023411;29;20115;-72
2022/06/22 00:03:55;;;;;;;2.30;1.50;;;21.60;99.90;;;;;;1026658;28;20030;-72
2022/06/22 00:04:54;;;;;;;2.15;1.50;;;21.60;99.90;;;;;;1027459;28;20023;-72
2022/06/22 00:05:49;;;;;;;3.38;1.80;;;21.70;99.90;;;;;;1027860;28;20026;-72
2022/06/22 00:06:31;;;;;;;1.83;1.33;;;21.60;99.90;;;;;;1027715;28;20097;-71
2022/06/22 00:07:07;;;;;;;2.38;1.50;;;21.60;99.90;;;;;;1027758;28;20023;-71
2022/06/22 00:07:42;;;;;;;1.92;1.50;;;21.60;99.90;;;;;;1027701;28;20330;-71
2022/06/22 00:08:20;;;;;;;2.50;1.70;;;21.60;99.90;;;;;;1027509;28;20023;-72
2022/06/22 00:08:51;;;;;;;;;;;21.50;99.90;;;;;;1023808;29;20059;-73
2022/06/22 00:09:26;;;;;;;2.25;1.30;;;21.50;99.90;;;;;;1023308;29;19918;-73
2022/06/22 00:10:16;;;;;;;1.75;1.50;;;21.40;99.90;;;;;;1025171;28;20090;-73
2022/06/22 00:11:07;;;;;;;2.22;1.50;;;21.50;99.90;;;;;;1027659;28;20030;-73
2022/06/22 00:11:43;;;;;;;2.72;1.58;;;21.50;99.90;;;;;;1027206;28;20023;-73
2022/06/22 00:12:24;;;;;;;4.07;1.98;;;21.50;99.90;;;;;;1027378;28;20094;-73
2022/06/22 00:12:57;;;;;;;2.50;1.25;;;21.50;99.90;;;;;;1027380;28;20031;-75
2022/06/22 00:13:30;;;;;;;1.70;1.60;;;21.50;99.90;;;;;;1027542;28;20031;-73
2022/06/22 00:14:02;;;;;;;2.58;1.70;;;21.50;99.90;;;;;;1027503;28;20018;-73
2022/06/22 00:14:46;;;;;;;2.47;1.83;;;21.50;99.90;;;;;;1027634;28;20060;-73
2022/06/22 00:15:39;;;;;;;1.92;1.50;;;21.50;99.90;;;;;;1027562;28;20015;-73
2022/06/22 00:16:19;;;;;;;3.05;1.63;;;21.50;99.90;;;;;;1027152;28;20501;-73
2022/06/22 00:16:52;;;;;;;1.98;1.40;;;21.50;99.90;;;;;;1027140;28;20030;-73
2022/06/22 00:17:30;;;;;;;1.70;1.33;;;21.40;99.90;;;;;;1027244;28;20679;-73
2022/06/22 00:18:03;;;;;;;2.78;1.52;;;21.50;99.90;;;;;;1027380;28;20067;-73
2022/06/22 00:18:39;;;;;;;2.42;1.55;;;21.40;99.90;;;;;;1027380;28;20065;-73
2022/06/22 00:19:40;;;;;;;2.65;1.60;;;21.40;99.90;;;;;;1023237;29;20024;-73
2022/06/22 00:20:23;;;;;;;2.60;1.75;;;21.40;99.90;;;;;;1023200;29;20422;-73
2022/06/22 00:20:58;;;;;;;3.35;1.80;;;21.40;99.90;;;;;;1025175;28;20023;-73
2022/06/22 00:21:36;;;;;;;2.08;1.52;;;21.40;99.90;;;;;;1027260;28;20754;-73
2022/06/22 00:22:20;;;;;;;2.67;1.88;;;21.40;99.90;;;;;;1023289;29;20506;-73
2022/06/22 00:23:05;;;;;;;3.20;1.65;;;21.40;99.90;;;;;;1025047;28;20027;-73
2022/06/22 00:23:41;;;;;;;4.45;1.70;;;21.40;99.90;;;;;;1027899;28;20031;-73
2022/06/22 00:24:23;;;;;;;3.30;1.70;;;21.40;99.90;;;;;;1027365;28;20023;-73
2022/06/22 00:25:12;;;;;;;2.13;1.45;;;21.40;99.90;;;;;;1027505;28;20023;-73
2022/06/22 00:25:43;;;;;;;1.70;1.60;;;21.40;99.90;;;;;;1027073;28;20026;-73
2022/06/22 00:26:34;;;;;;;2.73;1.60;;;21.30;99.90;;;;;;1027346;28;20042;-73
2022/06/22 00:27:27;;;;;;;1.48;1.17;;;21.30;99.90;;;;;;1027093;28;20027;-73
2022/06/22 00:28:25;;;;;;;2.33;1.60;;;21.30;99.90;;;;;;1027284;28;20568;-73
2022/06/22 00:29:16;;;;;;;3.85;1.58;;;21.30;99.90;;;;;;1027157;28;20019;-73
2022/06/22 00:30:21;;;;;;;2.15;1.48;;;21.30;99.90;;;;;;1027386;28;20007;-73
2022/06/22 00:31:16;;;;;;;3.10;1.65;;;21.30;99.90;;;;;;1018787;28;20099;-73
2022/06/22 00:31:49;;;;;;;2.58;1.55;;;21.30;99.90;;;;;;1027696;28;20238;-73
2022/06/22 00:32:28;;;;;;;2.55;1.50;;;21.40;99.90;;;;;;1027442;28;20019;-73
2022/06/22 00:33:22;;;;;;;2.55;1.50;;;21.40;99.90;;;;;;1027599;28;20356;-72
2022/06/22 00:34:11;;;;;;;2.45;1.63;;;21.30;99.90;;;;;;1027753;28;20019;-73
2022/06/22 00:34:42;;;;;;;2.50;1.50;;;21.30;99.90;;;;;;1027513;28;20007;-73
2022/06/22 00:35:41;;;;;;;1.90;1.43;;;21.40;99.90;;;;;;1027533;28;20017;-73
2022/06/22 00:36:12;;;;;;;2.40;1.63;;;21.30;99.90;;;;;;1027656;28;20118;-73
2022/06/22 00:36:49;;;;;;;2.40;1.50;;;21.20;99.90;;;;;;1027226;28;20041;-73
2022/06/22 00:37:29;;;;;;;3.67;2.00;;;21.30;99.90;;;;;;1027635;28;20029;-73
2022/06/22 00:38:00;;;;;;;4.45;1.80;;;21.30;99.90;;;;;;1027018;28;20015;-73
2022/06/22 00:38:32;;;;;;;3.20;1.77;;;21.30;99.90;;;;;;1027243;28;20438;-73
2022/06/22 00:39:16;;;;;;;1.98;1.50;;;21.30;99.90;;;;;;1027244;28;20450;-72
2022/06/22 00:39:51;;;;;;;2.60;1.63;;;21.30;99.90;;;;;;1027143;28;20501;-72
2022/06/22 00:40:22;;;;;;;2.42;1.55;;;21.20;99.90;;;;;;1027265;28;20086;-71
2022/06/22 00:41:14;;;;;;;2.37;1.83;;;21.30;99.90;;;;;;1027543;28;20026;-71
2022/06/22 00:41:50;;;;;;;3.17;1.70;;;21.30;99.90;;;;;;1028001;28;20027;-73
2022/06/22 00:42:37;;;;;;;2.95;1.75;;;21.30;99.90;;;;;;1027529;28;20018;-72
2022/06/22 00:43:14;;;;;;;2.75;1.63;;;21.30;99.90;;;;;;1027323;28;20022;-71
2022/06/22 00:43:45;;;;;;;2.28;1.50;;;21.30;99.90;;;;;;1027159;28;20019;-71
2022/06/22 00:44:16;;;;;;;5.53;1.90;;;21.20;99.90;;;;;;1027690;28;20031;-71
2022/06/22 00:44:50;;;;;;;1.83;1.73;;;21.20;99.90;;;;;;1027206;28;20019;-72
2022/06/22 00:45:27;;;;;;;2.67;1.70;;;21.20;99.90;;;;;;1027204;28;20026;-72
2022/06/22 00:46:00;;;;;;;2.60;1.77;;;21.30;99.90;;;;;;1027395;28;20023;-72
2022/06/22 00:46:30;;;;;;;2.35;1.65;;;21.20;99.90;;;;;;1027820;28;20125;-72
2022/06/22 00:47:09;;;;;;;2.13;1.73;;;21.20;99.90;;;;;;1027089;28;20023;-72
2022/06/22 00:47:54;;;;;;;2.40;1.73;;;21.20;99.90;;;;;;1027353;28;20042;-72
2022/06/22 00:48:36;;;;;;;2.25;1.40;;;21.20;99.90;;;;;;1027097;28;20027;-72
2022/06/22 00:49:13;;;;;;;2.97;1.70;;;21.20;99.90;;;;;;1027801;28;20019;-71
2022/06/22 00:49:45;;;;;;;2.08;1.52;;;21.10;99.90;;;;;;1027681;28;20031;-72
2022/06/22 00:50:19;;;;;;;2.85;1.95;;;21.10;99.90;;;;;;1027399;28;20023;-72
2022/06/22 00:50:58;;;;;;;2.97;1.70;;;21.20;99.90;;;;;;1027551;28;20035;-72
2022/06/22 00:51:34;;;;;;;3.50;1.73;;;21.10;99.90;;;;;;1027449;28;20030;-72
2022/06/22 00:52:08;;;;;;;2.80;1.52;;;21.20;99.90;;;;;;1027743;28;20337;-72
2022/06/22 00:52:47;;;;;;;3.20;1.70;;;21.10;99.90;;;;;;1027411;28;20026;-73
2022/06/22 00:53:38;;;;;;;2.13;1.90;;;21.10;99.90;;;;;;1027571;28;20027;-72
2022/06/22 00:54:16;;;;;;;1.95;1.67;;;21.00;99.90;;;;;;1027419;28;20041;-72
2022/06/22 00:54:47;;;;;;;3.03;1.85;;;21.10;99.90;;;;;;1027388;28;20022;-72
2022/06/22 00:55:34;;;;;;;3.63;2.17;;;21.10;99.90;;;;;;1027551;28;20019;-72
2022/06/22 00:56:27;;;;;;;2.75;2.08;;;21.10;99.90;;;;;;1027375;28;20061;-73
2022/06/22 00:57:09;;;;;;;3.35;2.00;;;21.10;99.90;;;;;;1027736;28;20482;-72
2022/06/22 00:57:41;;;;;;;2.30;1.70;;;21.20;99.90;;;;;;1031039;28;20033;-72
2022/06/22 00:58:44;;;;;;;2.30;1.52;;;21.10;99.90;;;;;;1027031;28;20019;-72
2022/06/22 00:59:32;;;;;;;3.00;1.77;;;21.10;99.90;;;;;;1007153;29;20037;-72
2022/06/22 01:00:16;;;;;;;2.03;1.73;;;21.00;99.90;;;;;;1027136;28;20065;-72
2022/06/22 01:01:13;;;;;;;2.15;1.80;;;21.00;99.90;;;;;;1027111;28;20077;-72
2022/06/22 01:01:46;;;;;;;1.45;1.33;;;21.00;99.90;;;;;;1027273;28;20023;-72
2022/06/22 01:02:26;;;;;;;2.67;1.60;;;21.00;99.90;;;;;;1027370;28;20102;-73
2022/06/22 01:03:04;;;;;;;2.00;1.80;;;21.00;99.90;;;;;;1023390;28;20073;-71
2022/06/22 01:03:39;;;;;;;;;;;21.00;99.90;;;;;;1024240;28;20028;-73
2022/06/22 01:04:29;;;;;;;1.83;1.60;;;21.00;99.90;;;;;;1027006;28;20266;-73
2022/06/22 01:05:29;;;;;;;4.45;1.67;;;21.00;99.90;;;;;;1027292;28;20034;-72
2022/06/22 01:05:59;;;;;;;3.20;1.70;;;21.00;99.90;;;;;;1027364;28;20070;-72
2022/06/22 01:06:55;;;;;;;2.57;1.77;;;20.60;99.90;;;;;;1027081;28;20037;-72
2022/06/22 01:07:51;;;;;;;3.13;1.77;;;21.10;99.90;;;;;;1027262;28;20691;-72
2022/06/22 01:08:40;;;;;;;1.67;1.50;;;21.20;99.90;;;;;;1026398;28;20691;-72
2022/06/22 01:09:26;;;;;;;3.50;1.65;;;21.00;99.90;;;;;;1027420;28;20026;-72
2022/06/22 01:10:35;;;;;;;2.25;1.48;;;20.80;99.90;;;;;;1027256;28;20039;-72
2022/06/22 01:12:42;;;;;;;2.95;2.15;;;21.00;99.90;;;;;;1015055;29;20175;-73
2022/06/22 01:13:29;;;;;;;2.44;1.50;;;21.00;99.90;;;;;;1027561;28;20019;-73
2022/06/22 01:14:11;;;;;;;3.08;1.90;;;20.80;99.90;;;;;;1027512;28;20027;-73
2022/06/22 01:15:08;;;;;;;3.92;1.63;;;20.80;99.90;;;;;;1027373;28;20050;-73
2022/06/22 01:15:55;;;;;;;3.53;2.10;;;21.00;99.90;;;;;;1027376;28;20030;-73
2022/06/22 01:16:29;;;;;;;2.35;1.80;;;21.00;99.90;;;;;;1027499;28;20026;-73
2022/06/22 01:17:01;;;;;;;2.13;1.70;;;21.00;99.90;;;;;;1027319;28;20026;-72
2022/06/22 01:17:59;;;;;;;1.90;1.58;;;21.10;99.90;;;;;;1027198;28;20030;-73
2022/06/22 01:18:37;;;;;;;2.75;1.70;;;20.80;99.90;;;;;;1023084;29;20075;-73
2022/06/22 01:19:26;;;;;;;2.92;2.10;;;20.90;99.90;;;;;;1023569;28;20027;-72
2022/06/22 01:20:14;;;;;;;2.28;1.73;;;21.00;99.90;;;;;;1027037;28;20022;-72
2022/06/22 01:21:12;;;;;;;3.30;1.75;;;20.90;99.90;;;;;;1027364;28;20574;-72
2022/06/22 01:21:44;;;;;;;2.45;1.65;;;21.00;99.90;;;;;;1027416;28;20095;-71
2022/06/22 01:22:37;;;;;;;2.75;1.90;;;21.10;99.90;;;;;;1027531;28;20022;-72
2022/06/22 01:23:39;;;;;;;2.40;1.83;;;20.80;99.90;;;;;;1027398;28;20106;-72
2022/06/22 01:24:30;;;;;;;3.47;1.90;;;20.90;99.90;;;;;;1027385;28;20035;-72
2022/06/22 01:25:16;;;;;;;3.53;2.08;;;20.90;99.90;;;;;;1027255;28;20386;-72
2022/06/22 01:26:08;;;;;;;1.63;1.52;;;20.90;99.90;;;;;;1027421;28;20426;-71
2022/06/22 01:27:02;;;;;;;2.63;1.83;;;20.90;99.90;;;;;;1027394;28;20019;-71
2022/06/22 01:27:38;;;;;;;2.58;1.98;;;20.90;99.90;;;;;;1027013;28;20023;-71
2022/06/22 01:28:13;;;;;;;2.13;1.60;;;20.80;99.90;;;;;;1026974;28;20546;-72
2022/06/22 01:28:54;;;;;;;2.92;1.63;;;20.80;99.90;;;;;;1027142;28;20465;-71
2022/06/22 01:29:27;;;;;;;2.90;1.88;;;20.80;99.90;;;;;;1027044;28;20604;-71
2022/06/22 01:30:02;;;;;;;2.08;1.80;;;20.80;99.90;;;;;;1027409;28;20019;-71
2022/06/22 01:30:41;;;;;;;2.75;1.70;;;20.80;99.90;;;;;;1027614;28;20019;-72
2022/06/22 01:31:13;;;;;;;2.28;1.75;;;20.80;99.90;;;;;;1026729;28;20026;-71
2022/06/22 01:32:12;;;;;;;3.25;1.75;;;20.80;99.90;;;;;;1022874;28;20039;-72
2022/06/22 01:32:43;;;;;;;1.80;1.52;;;20.80;99.90;;;;;;1023259;28;20102;-71
2022/06/22 01:33:33;;;;;;;2.20;1.70;;;20.90;99.90;;;;;;1023376;28;20028;-72
2022/06/22 01:34:12;;;;;;;2.10;1.65;;;20.80;99.90;;;;;;1022941;29;20050;-71
2022/06/22 01:34:47;;;;;;;3.10;2.00;;;20.80;99.90;;;;;;1026669;28;20027;-71
2022/06/22 01:35:29;;;;;;;1.98;1.73;;;20.80;99.90;;;;;;1026951;28;20070;-72
2022/06/22 01:36:26;;;;;;;2.22;1.58;;;20.80;99.90;;;;;;1027192;28;20035;-71
2022/06/22 01:37:03;;;;;;;2.15;1.65;;;20.70;99.90;;;;;;1022268;28;20082;-71
2022/06/22 01:37:33;;;;;;;2.67;1.83;;;20.80;99.90;;;;;;1023339;28;20070;-72
2022/06/22 01:38:13;;;;;;;5.30;2.03;;;20.80;99.90;;;;;;1026967;28;20031;-71
2022/06/22 01:38:43;;;;;;;4.10;2.35;;;20.80;99.90;;;;;;1027057;28;20023;-72
2022/06/22 01:39:14;;;;;;;7.80;2.60;;;20.80;99.90;;;;;;1027396;28;20015;-71
2022/06/22 01:39:45;;;;;;;2.47;1.73;;;20.80;99.90;;;;;;1027250;28;20097;-72
2022/06/22 01:40:26;;;;;;;2.70;1.93;;;20.70;99.90;;;;;;1027290;28;20022;-72
2022/06/22 01:41:02;;;;;;;2.67;1.83;;;20.70;99.90;;;;;;1027675;28;20069;-73
2022/06/22 01:41:54;;;;;;;3.20;1.90;;;20.70;99.90;;;;;;1026942;28;20030;-72
2022/06/22 01:42:32;;;;;;;3.28;1.83;;;20.70;99.90;;;;;;1026891;28;20023;-72
2022/06/22 01:43:15;;;;;;;1.90;1.70;;;20.70;99.90;;;;;;1026845;28;20051;-72
2022/06/22 01:43:48;;;;;;;1.88;1.38;;;20.80;99.90;;;;;;1027573;28;20019;-72
2022/06/22 01:44:30;;;;;;;2.85;1.92;;;20.60;99.90;;;;;;1027189;28;20422;-72
2022/06/22 01:45:09;;;;;;;2.63;1.65;;;20.70;99.90;;;;;;1027252;28;20063;-72
2022/06/22 01:46:02;;;;;;;2.13;1.60;;;20.80;99.90;;;;;;1027133;28;20023;-73
2022/06/22 01:47:08;;;;;;;2.10;1.55;;;20.80;99.90;;;;;;1027224;28;20517;-72
2022/06/22 01:47:47;;;;;;;2.03;1.83;;;20.70;99.90;;;;;;1026703;28;20045;-72
2022/06/22 01:48:25;;;;;;;2.50;1.60;;;20.90;99.90;;;;;;1026882;28;20505;-72
2022/06/22 01:49:04;;;;;;;1.88;1.60;;;20.70;99.90;;;;;;1026894;28;20023;-73
2022/06/22 01:49:43;;;;;;;2.65;1.85;;;20.80;99.90;;;;;;1027134;28;20074;-72
2022/06/22 01:50:25;;;;;;;2.45;1.85;;;20.80;99.90;;;;;;1027246;28;20023;-72
2022/06/22 01:51:03;;;;;;;2.53;2.05;;;20.80;99.90;;;;;;1027277;28;20023;-72
2022/06/22 01:51:45;;;;;;;3.58;2.10;;;20.70;99.90;;;;;;1026954;28;20117;-72
2022/06/22 01:52:54;;;;;;;2.38;1.83;;;20.80;99.90;;;;;;1026877;28;20100;-71
2022/06/22 01:53:32;;;;;;;1.73;1.63;;;20.80;99.90;;;;;;1025836;28;20073;-72
2022/06/22 01:54:18;;;;;;;4.60;2.15;;;20.80;99.90;;;;;;1026728;28;20105;-71
2022/06/22 01:54:59;;;;;;;1.95;1.70;;;20.80;99.90;;;;;;1026674;28;20183;-72
2022/06/22 01:55:46;;;;;;;3.75;1.67;;;20.80;99.90;;;;;;1026794;28;20030;-72
2022/06/22 01:56:29;;;;;;;2.78;2.05;;;20.70;99.90;;;;;;1027050;28;20023;-73
2022/06/22 01:57:08;;;;;;;3.08;1.67;;;20.70;99.90;;;;;;1022883;29;20019;-72
2022/06/22 01:57:46;;;;;;;2.17;1.60;;;20.70;99.90;;;;;;1023262;28;20028;-73
2022/06/22 01:58:17;;;;;;;2.65;1.85;;;20.70;99.90;;;;;;1023204;29;20034;-73
2022/06/22 01:59:18;;;;;;;2.30;1.80;;;20.70;99.90;;;;;;1023175;29;20038;-73
2022/06/22 01:59:59;;;;;;;3.22;2.20;;;20.50;99.90;;;;;;1023157;29;20031;-73
2022/06/22 02:00:30;;;;;;;2.17;1.98;;;20.60;99.90;;;;;;1023347;29;20070;-72
2022/06/22 02:01:10;;;;;;;2.27;1.70;;;20.70;99.90;;;;;;1023111;29;20023;-73
2022/06/22 02:01:44;;;;;;;2.80;1.95;;;20.60;99.90;;;;;;1023367;29;20093;-73
2022/06/22 02:02:28;;;;;;;3.55;1.83;;;20.70;99.90;;;;;;1023066;29;20082;-73
2022/06/22 02:03:09;;;;;;;2.40;1.65;;;20.60;99.90;;;;;;1023171;29;20519;-72
2022/06/22 02:04:03;;;;;;;2.70;2.08;;;20.60;99.90;;;;;;1024741;28;20442;-72
2022/06/22 02:04:47;;;;;;;2.22;1.67;;;20.60;99.90;;;;;;1027256;28;20019;-72
2022/06/22 02:05:27;;;;;;;2.83;1.77;;;20.60;99.90;;;;;;1027247;28;20095;-72
2022/06/22 02:07:44;;;;;;;3.08;1.90;;;20.60;99.90;;;;;;1027187;28;20110;-72
2022/06/22 02:08:08;;;;;;;2.67;1.90;;;20.50;99.90;;;;;;1027223;28;20186;-72
2022/06/22 02:08:41;;;;;;;2.05;1.80;;;20.60;99.90;;;;;;1027277;28;20015;-72
2022/06/22 02:09:15;;;;;;;2.10;1.67;;;20.60;99.90;;;;;;1026719;28;20039;-72
2022/06/22 02:10:00;;;;;;;2.15;1.75;;;20.60;99.90;;;;;;1026676;28;20022;-72
2022/06/22 02:11:12;;;;;;;2.72;2.30;;;20.60;99.90;;;;;;1026894;28;20086;-72
2022/06/22 02:11:51;;;;;;;2.17;1.70;;;20.60;99.90;;;;;;1023610;28;20019;-72
2022/06/22 02:12:27;;;;;;;;;;;20.50;99.90;;;;;;1027468;28;20014;-73
2022/06/22 02:13:19;;;;;;;3.90;2.25;;;20.60;99.90;;;;;;1027174;28;19912;-72
2022/06/22 02:14:16;;;;;;;1.98;1.77;;;20.50;99.90;;;;;;1027155;28;20019;-72
2022/06/22 02:14:56;;;;;;;4.60;2.08;;;20.50;99.90;;;;;;1026527;28;20127;-72
2022/06/22 02:15:38;;;;;;;2.20;1.80;;;20.50;99.90;;;;;;1026856;28;20066;-72
2022/06/22 02:16:19;;;;;;;2.55;1.80;;;20.50;99.90;;;;;;1026699;28;20037;-72
2022/06/22 02:16:53;;;;;;;2.70;1.88;;;20.50;99.90;;;;;;1027161;28;20114;-72
2022/06/22 02:17:29;;;;;;;2.58;1.88;;;20.40;99.90;;;;;;1027173;28;20061;-72
2022/06/22 02:18:01;;;;;;;3.95;2.42;;;20.50;99.90;;;;;;1027043;28;20026;-72
2022/06/22 02:18:42;;;;;;;2.75;2.30;;;20.60;99.90;;;;;;1026761;28;20489;-72
2022/06/22 02:19:16;;;;;;;2.45;1.80;;;20.50;99.90;;;;;;1026800;28;20757;-72
2022/06/22 02:20:18;;;;;;;1.90;1.70;;;20.50;99.90;;;;;;1026743;28;20007;-72
2022/06/22 02:20:49;;;;;;;2.97;2.03;;;20.50;99.90;;;;;;1026775;28;20018;-72
2022/06/22 02:21:24;;;;;;;1.90;1.67;;;20.50;99.90;;;;;;1027024;28;20015;-72
2022/06/22 02:21:57;;;;;;;3.10;1.70;;;20.50;99.90;;;;;;1027017;28;20011;-72
2022/06/22 02:22:28;;;;;;;3.50;2.10;;;20.60;99.90;;;;;;1026668;28;20126;-72
2022/06/22 02:23:07;;;;;;;4.63;2.40;;;20.60;99.90;;;;;;1026723;28;20018;-72
2022/06/22 02:23:38;;;;;;;3.13;1.90;;;20.60;99.90;;;;;;1026941;28;20081;-72
2022/06/22 02:24:11;;;;;;;2.37;1.60;;;20.50;99.90;;;;;;1026576;28;20042;-72
2022/06/22 02:24:47;;;;;;;2.10;1.80;;;20.50;99.90;;;;;;1026918;28;20078;-73
2022/06/22 02:25:19;;;;;;;2.45;1.80;;;20.70;99.90;;;;;;1026675;28;20477;-72
2022/06/22 02:25:56;;;;;;;2.10;1.73;;;20.40;99.90;;;;;;1026752;28;20015;-73
2022/06/22 02:26:44;;;;;;;2.03;1.80;;;20.50;99.90;;;;;;1026665;28;20037;-72
2022/06/22 02:27:22;;;;;;;2.08;1.67;;;20.50;99.90;;;;;;1026640;28;20023;-71
2022/06/22 02:27:53;;;;;;;5.13;2.53;;;21.20;99.90;;;;;;1026628;28;20023;-71
2022/06/22 02:28:23;;;;;;;2.93;2.03;;;20.50;99.90;;;;;;1026498;28;20019;-71
2022/06/22 02:28:55;;;;;;;3.83;1.90;;;20.50;99.90;;;;;;1026588;28;20030;-72
2022/06/22 02:29:29;;;;;;;2.28;1.85;;;20.70;99.90;;;;;;1023014;28;20045;-73
2022/06/22 02:30:00;;;;;;;3.03;1.88;;;20.50;99.90;;;;;;1026155;28;20123;-72
2022/06/22 02:30:31;;;;;;;2.97;1.83;;;20.50;99.90;;;;;;1023037;29;20594;-71
2022/06/22 02:31:02;;;;;;;3.83;1.70;;;20.60;99.90;;;;;;1022707;29;20157;-70
2022/06/22 02:31:33;;;;;;;3.88;2.17;;;20.60;99.90;;;;;;1022661;29;20023;-73
2022/06/22 02:32:07;;;;;;;4.43;1.67;;;20.40;99.90;;;;;;1022643;29;20798;-73
2022/06/22 02:32:42;;;;;;;2.70;2.13;;;20.50;99.90;;;;;;1022608;29;20027;-72
2022/06/22 02:33:13;;;;;;;2.55;1.80;;;20.60;99.90;;;;;;1023101;28;20015;-73
2022/06/22 02:33:48;;;;;;;3.97;2.20;;;20.60;99.90;;;;;;1022442;29;20053;-73
2022/06/22 02:34:20;;;;;;;2.20;1.80;;;20.40;99.90;;;;;;1022669;29;20020;-72
2022/06/22 02:34:53;;;;;;;4.82;2.30;;;20.60;99.90;;;;;;1022705;29;20035;-72
2022/06/22 02:35:24;;;;;;;2.30;1.67;;;20.40;99.90;;;;;;1019753;29;20031;-71
2022/06/22 02:35:56;;;;;;;2.87;1.87;;;20.60;99.90;;;;;;1018684;29;20119;-71
2022/06/22 02:36:31;;;;;;;3.00;1.95;;;20.40;99.90;;;;;;1018673;29;20445;-71
2022/06/22 02:37:07;;;;;;;2.45;1.88;;;20.50;99.90;;;;;;1019610;29;20047;-72
2022/06/22 02:37:42;;;;;;;2.42;1.98;;;20.40;99.90;;;;;;1022996;29;20019;-72
2022/06/22 02:38:15;;;;;;;1.83;1.70;;;20.40;99.90;;;;;;1022949;29;20153;-72
2022/06/22 02:38:48;;;;;;;3.08;1.70;;;20.60;99.90;;;;;;1023078;29;20114;-72
2022/06/22 02:39:21;;;;;;;2.05;1.55;;;20.40;99.90;;;;;;1023088;29;20577;-72
2022/06/22 02:39:56;;;;;;;3.70;2.30;;;20.40;99.90;;;;;;1022984;29;20027;-72
2022/06/22 02:40:30;;;;;;;2.53;1.70;;;20.40;99.90;;;;;;1023179;29;20062;-72
2022/06/22 02:44:34;;;;;;;1.90;1.80;;;20.20;99.90;;;;;;1022979;29;20118;-72
2022/06/22 02:45:08;;;;;;;2.97;2.17;;;20.40;99.90;;;;;;1022989;28;20034;-72
2022/06/22 02:45:39;;;;;;;2.53;1.58;;;20.40;99.90;;;;;;1023058;29;20031;-71
2022/06/22 02:46:13;;;;;;;2.92;1.55;;;20.30;99.90;;;;;;1022784;29;20051;-72
2022/06/22 02:46:45;;;;;;;3.15;2.05;;;20.30;99.90;;;;;;1023125;29;20019;-71
2022/06/22 02:47:27;;;;;;;2.40;1.70;;;20.20;99.90;;;;;;1022980;29;20106;-72
2022/06/22 02:48:22;;;;;;;2.42;2.20;;;20.20;99.90;;;;;;1025147;28;20038;-71
2022/06/22 02:48:57;;;;;;;2.20;2.00;;;20.30;99.90;;;;;;1027117;28;20019;-71
2022/06/22 02:49:32;;;;;;;2.95;1.88;;;20.30;99.90;;;;;;1027001;28;20538;-71
2022/06/22 02:50:30;;;;;;;2.70;1.98;;;20.20;99.90;;;;;;1026919;28;20057;-72
2022/06/22 02:51:25;;;;;;;2.85;1.85;;;20.30;99.90;;;;;;1027031;28;20022;-71
2022/06/22 02:51:58;;;;;;;2.83;1.70;;;20.20;99.90;;;;;;1026981;28;20019;-72
2022/06/22 02:52:36;;;;;;;2.20;1.70;;;20.30;99.90;;;;;;1026922;28;20019;-71
2022/06/22 02:53:19;;;;;;;1.90;1.70;;;20.30;99.90;;;;;;1023088;29;20020;-71
2022/06/22 02:53:51;;;;;;;2.15;1.65;;;20.30;99.90;;;;;;1023089;29;20118;-71
2022/06/22 02:54:33;;;;;;;3.00;1.92;;;20.30;99.90;;;;;;1022879;29;20064;-71
2022/06/22 02:55:04;;;;;;;3.05;1.65;;;20.30;99.90;;;;;;1022446;29;20019;-71
2022/06/22 02:55:36;;;;;;;4.90;2.08;;;20.20;99.90;;;;;;1022356;29;20526;-72
2022/06/22 02:56:23;;;;;;;2.45;1.83;;;20.30;99.90;;;;;;1022484;29;20019;-72
2022/06/22 02:57:24;;;;;;;1.77;1.50;;;20.30;99.90;;;;;;1022707;29;20015;-72
2022/06/22 02:57:54;;;;;;;2.63;1.73;;;20.20;99.90;;;;;;1017051;28;20028;-72
2022/06/22 02:58:26;;;;;;;3.77;1.83;;;20.10;99.90;;;;;;1022677;29;20070;-71
2022/06/22 02:58:57;;;;;;;4.07;2.08;;;20.20;99.90;;;;;;1026496;28;20442;-71
2022/06/22 02:59:28;;;;;;;2.97;1.60;;;20.30;99.90;;;;;;1026629;28;20542;-71
2022/06/22 02:59:59;;;;;;;2.37;1.83;;;20.30;99.90;;;;;;1026684;28;20046;-71
2022/06/22 03:00:34;;;;;;;2.83;1.98;;;20.30;99.90;;;;;;1026668;28;20051;-71
2022/06/22 03:01:12;;;;;;;1.77;1.52;;;20.30;99.90;;;;;;1022570;29;20084;-71
2022/06/22 03:01:42;;;;;;;2.88;1.50;;;20.20;99.90;;;;;;1022689;29;20015;-72
2022/06/22 03:02:13;;;;;;;2.53;1.87;;;20.40;99.90;;;;;;1022591;29;20332;-71
2022/06/22 03:02:45;;;;;;;2.07;1.77;;;20.30;99.90;;;;;;1023542;28;20019;-72
2022/06/22 03:03:17;;;;;;;2.47;1.67;;;20.10;99.90;;;;;;1026629;28;20098;-72
2022/06/22 03:03:55;;;;;;;2.30;1.67;;;20.30;99.90;;;;;;1028427;28;20034;-71
2022/06/22 03:04:26;;;;;;;1.60;1.50;;;20.40;99.90;;;;;;1026536;28;20501;-72
2022/06/22 03:04:58;;;;;;;2.23;1.77;;;20.30;99.90;;;;;;1026680;28;20832;-72
2022/06/22 03:05:29;;;;;;;1.60;1.50;;;20.40;99.90;;;;;;1026607;28;20439;-73
2022/06/22 03:05:59;;;;;;;3.97;2.00;;;20.30;99.90;;;;;;1026478;28;20375;-73
2022/06/22 03:06:35;;;;;;;1.87;1.67;;;20.30;99.90;;;;;;1027186;28;20668;-72
2022/06/22 03:07:06;;;;;;;2.05;1.50;;;20.20;99.90;;;;;;1026819;28;20015;-72
2022/06/22 03:07:48;;;;;;;2.75;1.90;;;20.30;99.90;;;;;;1027209;28;20030;-72
2022/06/22 03:08:19;;;;;;;2.17;1.90;;;20.30;99.90;;;;;;1026197;28;20038;-71
2022/06/22 03:08:51;;;;;;;3.38;1.90;;;20.20;99.90;;;;;;1026651;28;20019;-72
2022/06/22 03:09:25;;;;;;;1.88;1.70;;;20.30;99.90;;;;;;1026437;28;20027;-72
2022/06/22 03:09:57;;;;;;;2.30;1.80;;;20.30;99.90;;;;;;1026645;28;20031;-72
2022/06/22 03:10:52;;;;;;;2.78;1.67;;;20.30;99.90;;;;;;1026373;28;20046;-72
2022/06/22 03:11:22;;;;;;;2.50;1.90;;;20.30;99.90;;;;;;1026398;28;20031;-72
2022/06/22 03:11:55;;;;;;;4.17;2.10;;;20.20;99.90;;;;;;1026544;28;20602;-72
2022/06/22 03:12:26;;;;;;;4.25;1.85;;;20.30;99.90;;;;;;1026553;28;20060;-72
2022/06/22 03:12:59;;;;;;;3.87;2.00;;;20.20;99.90;;;;;;1026567;28;20161;-73
2022/06/22 03:13:38;;;;;;;3.05;1.70;;;20.30;99.90;;;;;;1026625;28;20093;-72
2022/06/22 03:14:20;;;;;;;3.08;1.80;;;20.20;99.90;;;;;;1026794;28;20027;-72
2022/06/22 03:14:58;;;;;;;2.78;1.95;;;20.20;99.90;;;;;;1027075;28;20093;-72
2022/06/22 03:15:34;;;;;;;3.02;1.76;;;20.40;99.90;;;;;;1026940;28;20536;-72
2022/06/22 03:16:07;;;;;;;3.95;1.80;;;20.10;99.90;;;;;;1026450;28;20074;-71
2022/06/22 03:16:40;;;;;;;2.50;1.88;;;20.20;99.90;;;;;;1026602;28;20696;-72
2022/06/22 03:17:16;;;;;;;4.45;1.95;;;20.20;99.90;;;;;;1026552;28;20019;-71
2022/06/22 03:17:47;;;;;;;4.75;2.30;;;20.10;99.90;;;;;;1026756;28;20398;-73
2022/06/22 03:18:26;;;;;;;1.70;1.60;;;20.30;99.90;;;;;;1026997;28;20478;-72
2022/06/22 03:19:01;;;;;;;1.90;1.70;;;20.20;99.90;;;;;;1026977;28;20470;-72
2022/06/22 03:19:43;;;;;;;3.63;1.70;;;20.30;99.90;;;;;;1027034;28;20065;-72
2022/06/22 03:20:20;;;;;;;3.75;1.92;;;20.10;99.90;;;;;;1026430;28;20435;-71
2022/06/22 03:20:58;;;;;;;3.25;2.05;;;20.10;99.90;;;;;;1022605;28;20031;-72
2022/06/22 03:21:29;;;;;;;2.38;1.70;;;20.20;99.90;;;;;;1022773;29;20034;-72
2022/06/22 03:22:00;;;;;;;2.33;1.77;;;20.30;99.90;;;;;;1026164;28;20034;-72
2022/06/22 03:22:40;;;;;;;3.70;2.07;;;20.10;99.90;;;;;;1023751;28;20597;-71
2022/06/22 03:23:53;;;;;;;2.47;1.70;;;20.10;99.90;;;;;;1027977;28;20026;-72
2022/06/22 03:24:52;;;;;;;2.17;1.50;;;20.10;99.90;;;;;;1021134;29;20027;-72
2022/06/22 03:25:39;;;;;;;4.32;2.60;;;20.10;99.90;;;;;;1027366;28;20058;-72
2022/06/22 03:26:27;;;;;;;2.60;2.38;;;20.00;99.90;;;;;;1026901;28;20022;-72
2022/06/22 03:27:05;;;;;;;2.60;1.85;;;20.10;99.90;;;;;;1026894;28;20038;-72
2022/06/22 03:27:40;;;;;;;2.08;1.67;;;20.10;99.90;;;;;;1027115;28;20033;-72
2022/06/22 03:28:16;;;;;;;2.75;1.92;;;20.20;99.90;;;;;;1030169;28;20081;-72
2022/06/22 03:28:53;;;;;;;3.42;1.80;;;20.10;99.90;;;;;;1026605;28;20125;-72
2022/06/22 03:29:47;;;;;;;1.80;1.45;;;20.20;99.90;;;;;;1026343;28;20019;-72
2022/06/22 03:30:25;;;;;;;2.67;2.15;;;20.10;99.90;;;;;;1026518;28;20015;-72
2022/06/22 03:31:05;;;;;;;2.47;1.80;;;20.00;99.90;;;;;;1026538;28;20017;-72
2022/06/22 03:31:43;;;;;;;2.85;1.98;;;20.10;99.90;;;;;;1022617;28;20030;-72
2022/06/22 03:32:25;;;;;;;3.35;2.08;;;20.10;99.90;;;;;;1022407;29;20007;-72
2022/06/22 03:33:09;;;;;;;3.20;1.77;;;20.10;99.90;;;;;;1026634;28;20529;-71
2022/06/22 03:33:45;;;;;;;2.28;1.73;;;20.10;99.90;;;;;;1027022;28;20374;-71
2022/06/22 03:34:21;;;;;;;3.35;2.10;;;20.10;99.90;;;;;;1026842;28;20007;-71
2022/06/22 03:35:03;;;;;;;4.22;2.38;;;20.20;99.90;;;;;;1030483;28;20474;-71
2022/06/22 03:35:42;;;;;;;2.47;2.25;;;20.10;99.90;;;;;;1030495;28;20050;-71